Skip Navigation LinksHome page > Weather > Current weather Skip Navigation Links

Current Weather

Chicago O'Hare Intl, Chicago

For information only: do not use for flight planning or navigation.
Latest weather
Observation time Friday, June 23, 2017 2:51 PM CDT
Local time Friday, June 23, 2017 3:42 PM CDT
Flight conditions Visual Meteorological Conditions
Winds
Wind direction Northwest (310°)
Wind speed 14 mph
Visibility 10 mi.
Sky condition
Ceiling unlimited
Cloud layer few clouds 6,500 ft.
Cloud layer few clouds 15,000 ft.
Cloud layer scattered clouds 25,000 ft.
Temperature 82°F
Dewpoint 45°F
Altimeter 29.70 in.Hg
Derived measurements
Relative humidity 27%
Heat index 82°F
Density altitude 2542 ft.
Sea-level pressure 29.69 in.Hg
Remarks
Automated weather observing station with precipitation discriminator.
METAR KORD 231951Z 31012KT 10SM FEW065 FEW150 SCT250 28/07 A2970 RMK AO2 SLP053 T02780072

Settings

Location code

InnerDrive.Weather 4.0.6144.1 Release CLR 4.0.30319.36366
Copyright ©2015 Inner Drive Technology. All rights reserved. Portions Copyright ©1986-2015 David Braverman.

Find weather

Site navigation


Skip Navigation Links

Place info

Page info

PayPal - The safer, easier way to pay online!

Return home.

Copyright ©2017 Inner Drive Technology. Purveyors of fine, hand-crafted computer software. Page printed 2017-06-23T20:42:06 UTC.